Time;durP1;ratioP1;P1;durP2;ratioP2;P2;SDS_P1;SDS_P2;PMS_P1;PMS_P2;Temp;Humidity;BMP_temperature;BMP_pressure;BME280_temperature;BME280_humidity;BME280_pressure;Samples;Min_cycle;Max_cycle;Signal;HPM_P1;HPM_P2
2023/11/18 00:00:01;;;;;;;32.22;15.35;;;;;;;;;;691754;28;1189;-67
2023/11/18 00:00:21;;;;;;;32.17;15.30;;;;;;;;;;693994;28;1073;-68
2023/11/18 00:00:41;;;;;;;33.03;15.30;;;;;;;;;;694316;28;4497;-68
2023/11/18 00:01:03;;;;;;;33.37;15.43;;;;;;;;;;695096;28;1211;-68
2023/11/18 00:01:23;;;;;;;31.83;15.68;;;;;;;;;;695269;28;1104;-68
2023/11/18 00:01:44;;;;;;;33.03;15.98;;;;;;;;;;701039;28;1085;-68
2023/11/18 00:02:04;;;;;;;32.87;15.67;;;;;;;;;;702936;28;836;-68
2023/11/18 00:02:25;;;;;;;33.60;15.37;;;;;;;;;;700418;28;935;-67
2023/11/18 00:02:45;;;;;;;35.13;16.05;;;;;;;;;;702388;28;986;-67
2023/11/18 00:03:06;;;;;;;35.80;16.52;;;;;;;;;;701339;28;868;-68
2023/11/18 00:03:26;;;;;;;32.77;16.37;;;;;;;;;;701647;28;1322;-68
2023/11/18 00:03:46;;;;;;;34.50;15.85;;;;;;;;;;701652;28;4257;-68
2023/11/18 00:04:09;;;;;;;32.87;15.47;;;;;;;;;;702624;28;1320;-67
2023/11/18 00:04:30;;;;;;;32.85;15.18;;;;;;;;;;698567;28;1057;-68
2023/11/18 00:04:51;;;;;;;35.45;15.18;;;;;;;;;;698502;28;816;-68
2023/11/18 00:05:11;;;;;;;31.75;14.90;;;;;;;;;;699286;28;1102;-68
2023/11/18 00:05:32;;;;;;;31.97;15.33;;;;;;;;;;696378;28;1176;-68
2023/11/18 00:05:52;;;;;;;31.13;15.20;;;;;;;;;;698925;28;797;-67
2023/11/18 00:06:13;;;;;;;32.97;15.47;;;;;;;;;;699094;28;885;-68
2023/11/18 00:06:33;;;;;;;34.10;15.80;;;;;;;;;;702129;28;925;-68
2023/11/18 00:06:54;;;;;;;32.13;15.40;;;;;;;;;;701249;28;4313;-67
2023/11/18 00:07:15;;;;;;;32.78;15.75;;;;;;;;;;700687;28;1106;-69
2023/11/18 00:07:36;;;;;;;33.40;15.45;;;;;;;;;;703153;28;828;-68
2023/11/18 00:07:58;;;;;;;32.10;14.52;;;;;;;;;;702417;28;844;-68
2023/11/18 00:08:19;;;;;;;30.80;15.18;;;;;;;;;;701325;28;961;-68
2023/11/18 00:08:40;;;;;;;30.88;15.05;;;;;;;;;;703711;28;1134;-67
2023/11/18 00:09:01;;;;;;;29.48;14.25;;;;;;;;;;702952;28;1328;-67
2023/11/18 00:09:24;;;;;;;32.03;14.65;;;;;;;;;;701479;28;1266;-68
2023/11/18 00:09:45;;;;;;;30.52;14.95;;;;;;;;;;702876;28;4412;-68
2023/11/18 00:10:06;;;;;;;31.55;14.95;;;;;;;;;;701799;28;1048;-68
2023/11/18 00:10:26;;;;;;;31.77;15.35;;;;;;;;;;699024;28;1175;-67
2023/11/18 00:10:47;;;;;;;30.57;15.27;;;;;;;;;;700813;28;790;-68
2023/11/18 00:11:09;;;;;;;27.63;13.95;;;;;;;;;;700452;28;840;-68
2023/11/18 00:11:29;;;;;;;30.42;14.48;;;;;;;;;;699235;28;1185;-68
2023/11/18 00:11:49;;;;;;;29.53;15.07;;;;;;;;;;700546;28;1025;-68
2023/11/18 00:12:09;;;;;;;30.03;14.53;;;;;;;;;;701184;28;916;-68
2023/11/18 00:12:29;;;;;;;31.97;14.50;;;;;;;;;;701885;28;985;-68
2023/11/18 00:12:50;;;;;;;29.92;14.57;;;;;;;;;;702594;28;4293;-68
2023/11/18 00:13:10;;;;;;;28.67;14.63;;;;;;;;;;702198;28;1194;-67
2023/11/18 00:13:30;;;;;;;30.17;14.27;;;;;;;;;;697327;28;1453;-68
2023/11/18 00:13:51;;;;;;;30.37;14.13;;;;;;;;;;697744;28;928;-66
2023/11/18 00:14:11;;;;;;;29.00;13.80;;;;;;;;;;697606;28;853;-68
2023/11/18 00:14:32;;;;;;;27.75;13.18;;;;;;;;;;695685;28;1107;-67
2023/11/18 00:14:52;;;;;;;31.00;14.43;;;;;;;;;;696957;28;770;-68
2023/11/18 00:15:12;;;;;;;32.67;15.00;;;;;;;;;;697186;28;1002;-68
2023/11/18 00:15:35;;;;;;;32.67;15.00;;;;;;;;;;697876;28;1042;-67
2023/11/18 00:15:55;;;;;;;33.03;15.40;;;;;;;;;;698888;28;4283;-68
2023/11/18 00:16:16;;;;;;;33.70;15.50;;;;;;;;;;698539;28;1127;-69
2023/11/18 00:16:37;;;;;;;31.80;14.98;;;;;;;;;;696346;28;1383;-68
2023/11/18 00:16:58;;;;;;;32.03;15.18;;;;;;;;;;696917;28;1238;-68
2023/11/18 00:17:20;;;;;;;31.98;15.02;;;;;;;;;;694627;28;1910;-68
2023/11/18 00:17:40;;;;;;;32.40;14.52;;;;;;;;;;697905;28;932;-67
2023/11/18 00:18:01;;;;;;;30.47;14.17;;;;;;;;;;699650;28;1230;-68
2023/11/18 00:18:21;;;;;;;31.75;13.93;;;;;;;;;;699152;28;1051;-67
2023/11/18 00:18:42;;;;;;;32.20;14.63;;;;;;;;;;701572;28;4782;-68
2023/11/18 00:19:04;;;;;;;30.40;14.13;;;;;;;;;;702639;28;907;-67
2023/11/18 00:19:25;;;;;;;30.02;14.57;;;;;;;;;;700502;28;1114;-67
2023/11/18 00:19:45;;;;;;;29.40;14.50;;;;;;;;;;702977;28;824;-68
2023/11/18 00:20:09;;;;;;;27.03;13.87;;;;;;;;;;701756;28;3782;-67
2023/11/18 00:20:30;;;;;;;30.60;13.70;;;;;;;;;;701452;28;2320;-69
2023/11/18 00:20:51;;;;;;;28.67;14.38;;;;;;;;;;699104;28;1041;-67
2023/11/18 00:21:12;;;;;;;29.48;13.88;;;;;;;;;;699052;28;1142;-67
2023/11/18 00:21:32;;;;;;;29.08;13.90;;;;;;;;;;697689;28;1790;-66
2023/11/18 00:21:53;;;;;;;30.57;14.67;;;;;;;;;;698044;28;4479;-67
2023/11/18 00:22:13;;;;;;;30.73;14.80;;;;;;;;;;700361;28;1160;-68
2023/11/18 00:22:34;;;;;;;29.10;14.23;;;;;;;;;;699667;28;1837;-68
2023/11/18 00:22:55;;;;;;;30.88;14.60;;;;;;;;;;702595;28;952;-68
2023/11/18 00:23:16;;;;;;;31.17;14.90;;;;;;;;;;701925;28;1320;-67
2023/11/18 00:23:37;;;;;;;29.55;14.45;;;;;;;;;;702316;28;808;-68
2023/11/18 00:23:57;;;;;;;30.30;14.50;;;;;;;;;;699624;28;1264;-68
2023/11/18 00:24:17;;;;;;;31.93;14.87;;;;;;;;;;696400;28;2733;-68
2023/11/18 00:24:38;;;;;;;30.13;14.40;;;;;;;;;;698169;28;733;-68
2023/11/18 00:24:58;;;;;;;30.47;15.03;;;;;;;;;;697306;28;4566;-68
2023/11/18 00:25:18;;;;;;;30.30;14.67;;;;;;;;;;696647;28;1110;-67
2023/11/18 00:25:40;;;;;;;28.98;14.13;;;;;;;;;;697623;28;1410;-67
2023/11/18 00:26:00;;;;;;;30.80;14.18;;;;;;;;;;700883;28;1227;-68
2023/11/18 00:26:20;;;;;;;31.02;13.98;;;;;;;;;;701773;28;1913;-68
2023/11/18 00:26:43;;;;;;;29.88;14.35;;;;;;;;;;698988;28;1435;-67
2023/11/18 00:27:05;;;;;;;30.03;13.97;;;;;;;;;;700063;28;1252;-68
2023/11/18 00:27:26;;;;;;;29.67;13.93;;;;;;;;;;699320;28;1227;-68
2023/11/18 00:27:46;;;;;;;29.75;13.90;;;;;;;;;;699451;28;4237;-67
2023/11/18 00:28:09;;;;;;;32.57;13.60;;;;;;;;;;695463;28;1197;-68
2023/11/18 00:28:29;;;;;;;28.98;13.98;;;;;;;;;;695954;28;1826;-67
2023/11/18 00:28:49;;;;;;;25.13;12.70;;;;;;;;;;697070;28;1212;-67
2023/11/18 00:29:10;;;;;;;28.33;13.67;;;;;;;;;;696187;28;931;-68
2023/11/18 00:29:34;;;;;;;27.73;13.63;;;;;;;;;;695556;28;1572;-67
2023/11/18 00:29:54;;;;;;;30.88;14.63;;;;;;;;;;697225;28;963;-68
2023/11/18 00:30:15;;;;;;;30.93;14.00;;;;;;;;;;698304;28;1238;-67
2023/11/18 00:30:35;;;;;;;28.67;13.82;;;;;;;;;;694405;28;1776;-67
2023/11/18 00:30:55;;;;;;;29.23;14.00;;;;;;;;;;696619;28;4325;-67
2023/11/18 00:31:16;;;;;;;30.43;14.17;;;;;;;;;;693510;28;1323;-68
2023/11/18 00:31:36;;;;;;;28.60;13.93;;;;;;;;;;691819;28;2232;-67
2023/11/18 00:31:56;;;;;;;30.03;14.50;;;;;;;;;;690618;28;1385;-68
2023/11/18 00:32:16;;;;;;;28.77;14.00;;;;;;;;;;692847;28;1769;-69
2023/11/18 00:32:37;;;;;;;28.03;13.20;;;;;;;;;;695378;28;932;-68
2023/11/18 00:32:57;;;;;;;28.20;13.45;;;;;;;;;;697838;28;1253;-68
2023/11/18 00:33:19;;;;;;;32.13;14.95;;;;;;;;;;697916;28;1918;-68
2023/11/18 00:33:39;;;;;;;28.43;13.70;;;;;;;;;;699098;28;772;-68
2023/11/18 00:34:00;;;;;;;29.00;13.73;;;;;;;;;;701426;28;4225;-68
2023/11/18 00:34:20;;;;;;;28.90;14.10;;;;;;;;;;701059;28;1192;-68
2023/11/18 00:34:40;;;;;;;30.10;14.17;;;;;;;;;;699704;28;1302;-67
2023/11/18 00:35:01;;;;;;;31.85;15.32;;;;;;;;;;697000;28;943;-68
2023/11/18 00:35:21;;;;;;;32.83;15.03;;;;;;;;;;694563;28;2089;-67
2023/11/18 00:35:42;;;;;;;30.47;14.17;;;;;;;;;;696261;28;1345;-67
2023/11/18 00:36:03;;;;;;;29.85;14.27;;;;;;;;;;695656;28;1421;-67
2023/11/18 00:36:23;;;;;;;28.20;13.87;;;;;;;;;;697154;28;2267;-68
2023/11/18 00:36:44;;;;;;;30.15;14.32;;;;;;;;;;699274;28;4225;-68
2023/11/18 00:37:04;;;;;;;31.03;14.23;;;;;;;;;;700469;28;781;-67
2023/11/18 00:37:24;;;;;;;29.70;13.30;;;;;;;;;;698203;28;1910;-68
2023/11/18 00:37:45;;;;;;;29.90;13.90;;;;;;;;;;699379;28;769;-67
2023/11/18 00:38:05;;;;;;;30.03;13.60;;;;;;;;;;699427;28;1441;-68
2023/11/18 00:38:26;;;;;;;28.93;14.00;;;;;;;;;;702152;27;1226;-68
2023/11/18 00:38:47;;;;;;;28.63;13.45;;;;;;;;;;703145;28;1236;-68
2023/11/18 00:39:07;;;;;;;29.45;13.90;;;;;;;;;;703458;28;1248;-68
2023/11/18 00:39:27;;;;;;;30.93;14.40;;;;;;;;;;702009;28;2647;-67
2023/11/18 00:39:48;;;;;;;29.13;14.17;;;;;;;;;;702118;28;4428;-68
2023/11/18 00:40:09;;;;;;;28.80;14.45;;;;;;;;;;700447;28;1622;-68
2023/11/18 00:40:32;;;;;;;27.83;13.63;;;;;;;;;;697184;28;1187;-68
2023/11/18 00:40:52;;;;;;;27.55;12.73;;;;;;;;;;697242;28;1414;-68
2023/11/18 00:41:13;;;;;;;30.63;13.65;;;;;;;;;;694995;28;877;-67
2023/11/18 00:41:33;;;;;;;29.02;14.30;;;;;;;;;;688277;28;1495;-67
2023/11/18 00:41:55;;;;;;;28.23;13.80;;;;;;;;;;690289;28;1201;-67
2023/11/18 00:42:16;;;;;;;30.50;13.75;;;;;;;;;;690940;28;841;-68
2023/11/18 00:42:36;;;;;;;29.93;13.67;;;;;;;;;;689585;28;1557;-67
2023/11/18 00:42:56;;;;;;;29.70;13.57;;;;;;;;;;692091;28;4409;-68
2023/11/18 00:43:16;;;;;;;30.35;13.68;;;;;;;;;;695345;28;1373;-67
2023/11/18 00:43:37;;;;;;;28.23;13.77;;;;;;;;;;693835;28;1755;-67
2023/11/18 00:43:57;;;;;;;28.58;13.65;;;;;;;;;;694948;28;1479;-67
2023/11/18 00:44:18;;;;;;;28.10;13.63;;;;;;;;;;693710;28;1193;-68
2023/11/18 00:44:38;;;;;;;28.23;13.73;;;;;;;;;;698478;28;789;-67
2023/11/18 00:44:58;;;;;;;27.93;13.70;;;;;;;;;;700431;28;1334;-67
2023/11/18 00:45:19;;;;;;;26.10;13.02;;;;;;;;;;699098;28;1868;-67
2023/11/18 00:45:40;;;;;;;27.47;13.33;;;;;;;;;;701046;28;1261;-68
2023/11/18 00:46:03;;;;;;;27.98;13.45;;;;;;;;;;699540;28;4515;-67
2023/11/18 00:46:23;;;;;;;30.02;13.50;;;;;;;;;;696879;28;2760;-67
2023/11/18 00:46:43;;;;;;;29.33;13.63;;;;;;;;;;697300;28;920;-68
2023/11/18 00:47:03;;;;;;;28.15;13.48;;;;;;;;;;694935;28;1132;-73
2023/11/18 00:47:24;;;;;;;27.03;13.77;;;;;;;;;;694845;28;2323;-68
2023/11/18 00:47:44;;;;;;;27.43;14.00;;;;;;;;;;698956;28;1355;-68
2023/11/18 00:48:05;;;;;;;29.92;13.70;;;;;;;;;;696295;28;1488;-67
2023/11/18 00:48:25;;;;;;;30.27;13.80;;;;;;;;;;695625;28;1753;-68
2023/11/18 00:48:45;;;;;;;28.67;13.53;;;;;;;;;;697961;28;4395;-68
2023/11/18 00:49:05;;;;;;;28.60;13.43;;;;;;;;;;700337;28;1238;-68
2023/11/18 00:49:25;;;;;;;29.27;13.40;;;;;;;;;;698888;28;1454;-68
2023/11/18 00:49:46;;;;;;;27.10;13.30;;;;;;;;;;700273;28;1355;-68
2023/11/18 00:50:08;;;;;;;27.08;13.32;;;;;;;;;;700778;28;919;-68
2023/11/18 00:50:29;;;;;;;29.00;13.38;;;;;;;;;;695955;28;1964;-68
2023/11/18 00:50:49;;;;;;;30.27;14.43;;;;;;;;;;694785;28;924;-67
2023/11/18 00:51:09;;;;;;;31.00;14.13;;;;;;;;;;692620;28;1248;-68
2023/11/18 00:51:30;;;;;;;29.07;13.87;;;;;;;;;;693561;28;2351;-67
2023/11/18 00:51:50;;;;;;;32.30;14.23;;;;;;;;;;694762;28;4313;-68
2023/11/18 00:52:11;;;;;;;30.83;13.87;;;;;;;;;;695100;28;862;-67
2023/11/18 00:52:32;;;;;;;28.90;13.52;;;;;;;;;;693504;28;2395;-67
2023/11/18 00:52:52;;;;;;;31.20;13.93;;;;;;;;;;698034;28;808;-68
2023/11/18 00:53:12;;;;;;;30.43;14.23;;;;;;;;;;697804;28;1403;-67
2023/11/18 00:53:32;;;;;;;30.85;14.63;;;;;;;;;;697771;28;1882;-68
2023/11/18 00:53:54;;;;;;;28.33;13.43;;;;;;;;;;700114;28;1236;-68
2023/11/18 00:54:14;;;;;;;28.58;13.40;;;;;;;;;;698393;28;801;-67
2023/11/18 00:54:34;;;;;;;30.60;13.90;;;;;;;;;;700739;28;1833;-68
2023/11/18 00:54:54;;;;;;;29.70;13.90;;;;;;;;;;700511;28;4359;-68
2023/11/18 00:55:17;;;;;;;29.67;14.07;;;;;;;;;;698973;28;908;-68
2023/11/18 00:55:38;;;;;;;27.73;13.25;;;;;;;;;;699987;28;1381;-68
2023/11/18 00:55:58;;;;;;;31.15;14.35;;;;;;;;;;699923;28;796;-67
2023/11/18 00:56:18;;;;;;;30.57;14.10;;;;;;;;;;699102;28;969;-68
2023/11/18 00:56:39;;;;;;;29.03;14.03;;;;;;;;;;700250;28;1194;-67
2023/11/18 00:56:59;;;;;;;30.33;14.25;;;;;;;;;;697998;28;1187;-66
2023/11/18 00:57:19;;;;;;;32.63;14.77;;;;;;;;;;698897;28;1502;-68
2023/11/18 00:57:40;;;;;;;32.13;13.98;;;;;;;;;;697564;28;888;-69
2023/11/18 00:58:02;;;;;;;29.88;13.68;;;;;;;;;;697317;28;4779;-68
2023/11/18 00:58:22;;;;;;;31.27;14.10;;;;;;;;;;697456;28;2497;-68
2023/11/18 00:58:43;;;;;;;30.17;14.15;;;;;;;;;;694989;28;1148;-68
2023/11/18 00:59:06;;;;;;;29.70;14.23;;;;;;;;;;696349;28;849;-68
2023/11/18 00:59:27;;;;;;;27.63;13.80;;;;;;;;;;697305;28;2227;-68
2023/11/18 00:59:47;;;;;;;28.83;13.90;;;;;;;;;;697953;28;936;-68
2023/11/18 01:00:08;;;;;;;31.55;14.30;;;;;;;;;;699812;28;1464;-69
2023/11/18 01:00:30;;;;;;;29.55;13.32;;;;;;;;;;699046;28;2455;-68
2023/11/18 01:00:50;;;;;;;28.80;13.68;;;;;;;;;;701940;28;4417;-67
2023/11/18 01:01:10;;;;;;;28.90;13.60;;;;;;;;;;699941;28;1429;-68
2023/11/18 01:01:31;;;;;;;28.47;13.97;;;;;;;;;;698474;28;1863;-68
2023/11/18 01:01:52;;;;;;;30.65;14.07;;;;;;;;;;697727;28;925;-68
2023/11/18 01:02:13;;;;;;;29.50;14.03;;;;;;;;;;697831;28;857;-68
2023/11/18 01:02:33;;;;;;;29.17;14.02;;;;;;;;;;695507;28;1990;-68
2023/11/18 01:02:54;;;;;;;28.17;13.40;;;;;;;;;;696144;28;762;-68
2023/11/18 01:03:15;;;;;;;28.73;13.57;;;;;;;;;;695451;28;1424;-68
2023/11/18 01:03:35;;;;;;;30.00;14.03;;;;;;;;;;696694;28;2369;-67
2023/11/18 01:03:59;;;;;;;28.77;13.53;;;;;;;;;;697725;28;4340;-68
2023/11/18 01:04:19;;;;;;;28.77;13.40;;;;;;;;;;696864;28;2393;-68
2023/11/18 01:04:40;;;;;;;26.75;13.38;;;;;;;;;;692693;28;936;-68
2023/11/18 01:05:00;;;;;;;29.00;13.43;;;;;;;;;;693671;28;1228;-68
2023/11/18 01:05:20;;;;;;;27.55;13.02;;;;;;;;;;692719;28;2538;-68
2023/11/18 01:05:41;;;;;;;26.03;13.40;;;;;;;;;;691964;28;1388;-68
2023/11/18 01:06:01;;;;;;;26.87;13.13;;;;;;;;;;691282;28;948;-68
2023/11/18 01:06:21;;;;;;;27.43;13.03;;;;;;;;;;692579;28;1756;-67
2023/11/18 01:06:42;;;;;;;27.23;13.67;;;;;;;;;;691765;28;4309;-68
2023/11/18 01:07:02;;;;;;;27.42;14.13;;;;;;;;;;691975;28;1207;-68
2023/11/18 01:07:23;;;;;;;28.67;13.47;;;;;;;;;;687006;28;2289;-68
2023/11/18 01:07:43;;;;;;;29.35;13.50;;;;;;;;;;692113;28;1449;-68
2023/11/18 01:08:05;;;;;;;29.73;13.97;;;;;;;;;;689522;28;959;-67
2023/11/18 01:08:25;;;;;;;28.13;13.32;;;;;;;;;;690696;28;1543;-68
2023/11/18 01:08:46;;;;;;;28.17;13.57;;;;;;;;;;695282;28;1142;-67
2023/11/18 01:09:07;;;;;;;27.98;13.55;;;;;;;;;;698072;28;1508;-68
2023/11/18 01:09:27;;;;;;;30.23;13.93;;;;;;;;;;698899;28;2232;-68
2023/11/18 01:09:48;;;;;;;30.13;13.83;;;;;;;;;;696913;28;4704;-67
2023/11/18 01:10:09;;;;;;;27.38;12.93;;;;;;;;;;691502;28;1014;-68
2023/11/18 01:10:30;;;;;;;27.77;13.07;;;;;;;;;;689512;28;1860;-67
2023/11/18 01:10:50;;;;;;;28.33;13.20;;;;;;;;;;693138;28;845;-68
2023/11/18 01:11:10;;;;;;;26.20;13.18;;;;;;;;;;693736;28;699;-67
2023/11/18 01:11:31;;;;;;;26.57;12.70;;;;;;;;;;692875;28;2281;-67
2023/11/18 01:11:51;;;;;;;24.87;12.63;;;;;;;;;;696660;28;955;-68
2023/11/18 01:12:11;;;;;;;25.93;12.73;;;;;;;;;;702801;28;982;-68
2023/11/18 01:12:32;;;;;;;26.08;12.85;;;;;;;;;;701182;28;2309;-67
2023/11/18 01:12:55;;;;;;;27.05;12.90;;;;;;;;;;700779;28;4264;-67
2023/11/18 01:13:15;;;;;;;26.30;13.15;;;;;;;;;;700155;28;1310;-67
2023/11/18 01:13:36;;;;;;;26.55;13.15;;;;;;;;;;695240;28;1346;-68
2023/11/18 01:13:56;;;;;;;25.90;13.10;;;;;;;;;;698273;28;778;-68
2023/11/18 01:14:17;;;;;;;23.70;12.90;;;;;;;;;;698106;28;868;-68
2023/11/18 01:14:39;;;;;;;25.08;12.95;;;;;;;;;;693159;28;1739;-68
2023/11/18 01:14:59;;;;;;;30.05;12.80;;;;;;;;;;695751;28;1262;-68
2023/11/18 01:15:20;;;;;;;28.02;13.32;;;;;;;;;;696982;28;1492;-69
2023/11/18 01:15:40;;;;;;;27.63;13.60;;;;;;;;;;696207;28;990;-68
2023/11/18 01:16:01;;;;;;;29.00;13.20;;;;;;;;;;697475;28;4383;-67
2023/11/18 01:16:22;;;;;;;29.42;13.90;;;;;;;;;;693566;28;3052;-68
2023/11/18 01:16:43;;;;;;;28.80;14.33;;;;;;;;;;697807;28;1103;-68
2023/11/18 01:17:05;;;;;;;30.33;14.00;;;;;;;;;;700661;28;1074;-67
2023/11/18 01:17:25;;;;;;;27.88;13.57;;;;;;;;;;696470;28;1906;-67
2023/11/18 01:17:46;;;;;;;26.97;13.37;;;;;;;;;;697418;28;912;-67
2023/11/18 01:18:06;;;;;;;27.77;13.20;;;;;;;;;;696973;28;897;-68
2023/11/18 01:18:26;;;;;;;27.70;13.83;;;;;;;;;;698287;28;2980;-67
2023/11/18 01:18:46;;;;;;;28.27;13.40;;;;;;;;;;698751;28;4262;-68
2023/11/18 01:19:09;;;;;;;25.42;12.98;;;;;;;;;;697529;28;1161;-68
2023/11/18 01:19:29;;;;;;;26.60;13.25;;;;;;;;;;698399;28;1063;-69
2023/11/18 01:19:49;;;;;;;26.47;12.73;;;;;;;;;;698234;28;908;-68
2023/11/18 01:20:10;;;;;;;26.52;13.00;;;;;;;;;;696665;28;939;-68
2023/11/18 01:20:31;;;;;;;27.02;13.38;;;;;;;;;;695945;28;1469;-68
2023/11/18 01:20:51;;;;;;;26.43;13.30;;;;;;;;;;696985;28;915;-67
2023/11/18 01:21:12;;;;;;;26.85;13.45;;;;;;;;;;698794;28;951;-67
2023/11/18 01:21:32;;;;;;;26.87;12.87;;;;;;;;;;698219;28;1027;-68
2023/11/18 01:21:53;;;;;;;27.37;13.33;;;;;;;;;;695034;28;4259;-68
2023/11/18 01:22:13;;;;;;;30.27;13.80;;;;;;;;;;696007;28;1350;-67
2023/11/18 01:22:34;;;;;;;26.52;12.23;;;;;;;;;;694221;28;2508;-67
2023/11/18 01:22:54;;;;;;;25.83;13.00;;;;;;;;;;692437;28;824;-67
2023/11/18 01:23:15;;;;;;;27.07;13.33;;;;;;;;;;690766;28;1225;-68
2023/11/18 01:23:35;;;;;;;28.13;13.65;;;;;;;;;;690246;28;2047;-68
2023/11/18 01:23:56;;;;;;;25.53;13.27;;;;;;;;;;694084;28;1389;-68
2023/11/18 01:24:16;;;;;;;27.13;13.73;;;;;;;;;;692015;28;1413;-68
2023/11/18 01:24:36;;;;;;;28.50;13.60;;;;;;;;;;693242;28;2472;-68
2023/11/18 01:24:58;;;;;;;27.23;13.17;;;;;;;;;;693097;28;4229;-68
2023/11/18 01:25:18;;;;;;;26.13;13.52;;;;;;;;;;695617;28;903;-68
2023/11/18 01:25:39;;;;;;;26.73;13.18;;;;;;;;;;696165;28;1828;-67
2023/11/18 01:26:00;;;;;;;27.98;13.85;;;;;;;;;;695123;28;1286;-68
2023/11/18 01:26:21;;;;;;;28.47;13.23;;;;;;;;;;696767;28;2479;-68
2023/11/18 01:26:41;;;;;;;28.83;13.50;;;;;;;;;;697803;28;1027;-68
2023/11/18 01:27:02;;;;;;;27.23;13.17;;;;;;;;;;698133;28;1290;-68
2023/11/18 01:27:22;;;;;;;26.80;13.57;;;;;;;;;;697793;28;2184;-67
2023/11/18 01:27:46;;;;;;;25.07;13.03;;;;;;;;;;699990;28;4450;-68
2023/11/18 01:28:06;;;;;;;26.73;13.38;;;;;;;;;;699411;28;2148;-68
2023/11/18 01:28:29;;;;;;;26.70;13.10;;;;;;;;;;699126;28;2717;-67
2023/11/18 01:28:49;;;;;;;26.67;13.45;;;;;;;;;;700970;28;1262;-68
2023/11/18 01:29:09;;;;;;;28.53;13.60;;;;;;;;;;700731;28;753;-68
2023/11/18 01:29:30;;;;;;;27.45;12.98;;;;;;;;;;699415;28;2579;-68
2023/11/18 01:29:51;;;;;;;26.40;12.90;;;;;;;;;;698375;28;1223;-67
2023/11/18 01:30:11;;;;;;;25.77;12.57;;;;;;;;;;695564;28;1907;-68
2023/11/18 01:30:32;;;;;;;27.90;12.98;;;;;;;;;;693429;28;2063;-68
2023/11/18 01:30:53;;;;;;;27.10;13.40;;;;;;;;;;694582;28;4418;-67
2023/11/18 01:31:13;;;;;;;27.33;13.50;;;;;;;;;;692200;28;1453;-68
2023/11/18 01:31:34;;;;;;;25.93;12.93;;;;;;;;;;690533;28;2056;-68
2023/11/18 01:31:55;;;;;;;24.77;12.13;;;;;;;;;;691248;28;1319;-69
2023/11/18 01:32:17;;;;;;;27.45;12.95;;;;;;;;;;692829;28;1432;-68
2023/11/18 01:32:39;;;;;;;26.17;13.23;;;;;;;;;;693323;28;1993;-68
2023/11/18 01:33:03;;;;;;;26.15;13.50;;;;;;;;;;696352;28;1216;-68
2023/11/18 01:33:25;;;;;;;26.45;12.40;;;;;;;;;;694726;28;2510;-67
2023/11/18 01:33:46;;;;;;;25.63;12.85;;;;;;;;;;699720;28;4854;-68
2023/11/18 01:34:07;;;;;;;26.02;12.85;;;;;;;;;;704929;27;1030;-67
2023/11/18 01:34:28;;;;;;;26.38;12.90;;;;;;;;;;701517;28;1963;-68
2023/11/18 01:34:50;;;;;;;23.05;11.93;;;;;;;;;;703596;28;978;-67
2023/11/18 01:35:13;;;;;;;23.55;12.75;;;;;;;;;;703202;28;1131;-68
2023/11/18 01:35:33;;;;;;;25.92;12.95;;;;;;;;;;701105;28;1182;-68
2023/11/18 01:35:54;;;;;;;26.45;14.10;;;;;;;;;;702942;28;816;-67
2023/11/18 01:36:15;;;;;;;24.85;13.27;;;;;;;;;;701609;28;836;-68
2023/11/18 01:36:35;;;;;;;22.83;12.43;;;;;;;;;;700686;28;1700;-67
2023/11/18 01:36:56;;;;;;;24.00;12.77;;;;;;;;;;702010;28;4269;-68
2023/11/18 01:37:17;;;;;;;25.38;13.10;;;;;;;;;;702315;28;860;-68
2023/11/18 01:37:37;;;;;;;25.97;13.40;;;;;;;;;;701182;28;1918;-67
2023/11/18 01:37:58;;;;;;;24.50;13.32;;;;;;;;;;701397;28;995;-67
2023/11/18 01:38:20;;;;;;;26.63;13.23;;;;;;;;;;698822;28;1486;-68
2023/11/18 01:38:40;;;;;;;25.38;12.85;;;;;;;;;;697825;28;1592;-68
2023/11/18 01:39:00;;;;;;;24.40;12.60;;;;;;;;;;699520;28;5888;-68
2023/11/18 01:39:21;;;;;;;23.27;12.63;;;;;;;;;;697926;28;2505;-67
2023/11/18 01:39:41;;;;;;;25.70;12.88;;;;;;;;;;696665;28;4494;-68
2023/11/18 01:40:07;;;;;;;27.53;12.90;;;;;;;;;;698286;28;920;-68
2023/11/18 01:40:31;;;;;;;25.98;12.82;;;;;;;;;;695194;28;1872;-68
2023/11/18 01:40:53;;;;;;;25.88;13.65;;;;;;;;;;694215;28;1370;-68
2023/11/18 01:41:14;;;;;;;26.33;13.27;;;;;;;;;;695146;28;960;-67
2023/11/18 01:41:35;;;;;;;27.13;13.18;;;;;;;;;;695422;28;2229;-68
2023/11/18 01:41:59;;;;;;;25.60;13.25;;;;;;;;;;696070;28;1391;-68
2023/11/18 01:42:19;;;;;;;25.63;13.25;;;;;;;;;;697538;28;921;-68
2023/11/18 01:42:41;;;;;;;27.20;13.40;;;;;;;;;;697418;28;1700;-68
2023/11/18 01:43:02;;;;;;;25.27;12.80;;;;;;;;;;699144;28;6153;-67
2023/11/18 01:43:22;;;;;;;24.98;13.05;;;;;;;;;;698973;28;2367;-68
2023/11/18 01:43:46;;;;;;;25.83;13.50;;;;;;;;;;698638;28;853;-67
2023/11/18 01:44:07;;;;;;;24.98;13.13;;;;;;;;;;697266;28;1380;-68
2023/11/18 01:44:28;;;;;;;26.65;13.77;;;;;;;;;;692322;28;2395;-68
2023/11/18 01:44:48;;;;;;;27.05;13.48;;;;;;;;;;693586;28;845;-69
2023/11/18 01:45:11;;;;;;;25.70;13.47;;;;;;;;;;694494;28;1130;-68
2023/11/18 01:45:31;;;;;;;26.50;13.38;;;;;;;;;;689991;28;2248;-68
2023/11/18 01:45:53;;;;;;;25.07;12.83;;;;;;;;;;690980;28;4471;-68
2023/11/18 01:46:13;;;;;;;26.88;13.60;;;;;;;;;;692766;28;924;-68
2023/11/18 01:46:35;;;;;;;27.27;13.47;;;;;;;;;;692942;28;1748;-68
2023/11/18 01:46:57;;;;;;;27.00;12.98;;;;;;;;;;693500;28;825;-68
2023/11/18 01:47:17;;;;;;;24.90;12.95;;;;;;;;;;695434;28;1498;-67
2023/11/18 01:47:39;;;;;;;26.77;12.90;;;;;;;;;;696013;28;1442;-69
2023/11/18 01:48:00;;;;;;;26.90;13.07;;;;;;;;;;695760;28;842;-68
2023/11/18 01:48:22;;;;;;;25.13;12.97;;;;;;;;;;696267;28;1132;-68
2023/11/18 01:48:42;;;;;;;24.77;12.75;;;;;;;;;;695222;28;4416;-67
2023/11/18 01:49:03;;;;;;;25.37;12.57;;;;;;;;;;695776;28;766;-68
2023/11/18 01:49:24;;;;;;;24.08;12.45;;;;;;;;;;697270;28;2419;-68
2023/11/18 01:49:44;;;;;;;25.83;13.35;;;;;;;;;;698560;28;899;-68
2023/11/18 01:50:06;;;;;;;26.80;13.03;;;;;;;;;;700928;28;995;-68
2023/11/18 01:50:27;;;;;;;25.02;13.05;;;;;;;;;;698838;28;2745;-68
2023/11/18 01:50:47;;;;;;;24.25;12.68;;;;;;;;;;700770;28;1043;-68
2023/11/18 01:51:09;;;;;;;24.70;13.00;;;;;;;;;;700309;28;1274;-68
2023/11/18 01:51:30;;;;;;;22.75;12.55;;;;;;;;;;698221;28;1266;-68
2023/11/18 01:51:56;;;;;;;24.50;13.03;;;;;;;;;;699804;28;4408;-68
2023/11/18 01:52:17;;;;;;;26.17;12.95;;;;;;;;;;701631;28;904;-68
2023/11/18 01:52:37;;;;;;;25.00;12.90;;;;;;;;;;702422;28;2202;-68
2023/11/18 01:52:58;;;;;;;25.55;13.30;;;;;;;;;;696999;28;860;-68
2023/11/18 01:53:18;;;;;;;23.77;12.77;;;;;;;;;;697122;28;1199;-67
2023/11/18 01:53:39;;;;;;;24.05;12.75;;;;;;;;;;692604;28;1767;-67
2023/11/18 01:54:00;;;;;;;23.75;12.20;;;;;;;;;;694403;28;917;-68
2023/11/18 01:54:21;;;;;;;24.83;12.40;;;;;;;;;;694946;28;754;-68
2023/11/18 01:54:44;;;;;;;23.60;12.63;;;;;;;;;;693328;28;4299;-68
2023/11/18 01:55:06;;;;;;;23.60;12.70;;;;;;;;;;697620;28;1340;-69
2023/11/18 01:55:26;;;;;;;25.35;12.63;;;;;;;;;;697625;28;1939;-68
2023/11/18 01:55:48;;;;;;;25.23;12.60;;;;;;;;;;696208;28;880;-67
2023/11/18 01:56:10;;;;;;;24.23;12.48;;;;;;;;;;697227;28;1111;-68
2023/11/18 01:56:32;;;;;;;23.95;13.02;;;;;;;;;;693429;28;1301;-68
2023/11/18 01:56:53;;;;;;;24.65;12.40;;;;;;;;;;695576;28;1622;-68
2023/11/18 01:57:14;;;;;;;24.05;12.25;;;;;;;;;;694775;28;1150;-68
2023/11/18 01:57:34;;;;;;;23.88;12.32;;;;;;;;;;693269;28;1902;-68
2023/11/18 01:57:56;;;;;;;24.52;12.70;;;;;;;;;;690679;28;4239;-67
2023/11/18 01:58:19;;;;;;;23.67;12.60;;;;;;;;;;690780;28;1332;-67
2023/11/18 01:58:41;;;;;;;24.45;12.80;;;;;;;;;;688079;28;1764;-68
2023/11/18 01:59:04;;;;;;;23.35;12.05;;;;;;;;;;689305;28;1641;-68
2023/11/18 01:59:25;;;;;;;23.00;12.77;;;;;;;;;;687826;28;2172;-67
2023/11/18 01:59:46;;;;;;;23.60;12.52;;;;;;;;;;688915;28;1345;-67
2023/11/18 02:00:07;;;;;;;23.77;12.88;;;;;;;;;;690499;28;1334;-68
2023/11/18 02:00:35;;;;;;;22.88;12.50;;;;;;;;;;692301;28;2417;-67
2023/11/18 02:00:55;;;;;;;22.38;12.73;;;;;;;;;;697297;28;4252;-67
2023/11/18 02:01:17;;;;;;;22.93;12.53;;;;;;;;;;697992;28;1237;-67
2023/11/18 02:01:39;;;;;;;23.77;12.40;;;;;;;;;;697112;28;2299;-67
2023/11/18 02:01:59;;;;;;;24.85;12.63;;;;;;;;;;696007;28;1502;-67
2023/11/18 02:02:23;;;;;;;23.00;12.53;;;;;;;;;;692733;28;1162;-68
2023/11/18 02:02:43;;;;;;;22.25;12.13;;;;;;;;;;692093;28;1196;-69
2023/11/18 02:03:05;;;;;;;22.60;11.57;;;;;;;;;;690114;28;1359;-68
2023/11/18 02:03:27;;;;;;;24.10;12.65;;;;;;;;;;689787;28;2681;-68
2023/11/18 02:03:47;;;;;;;24.02;12.65;;;;;;;;;;689840;28;4269;-67
2023/11/18 02:04:07;;;;;;;24.75;12.45;;;;;;;;;;690296;28;1379;-68
2023/11/18 02:04:29;;;;;;;23.63;13.03;;;;;;;;;;691310;28;1972;-67
2023/11/18 02:04:49;;;;;;;23.90;13.23;;;;;;;;;;692988;28;1271;-68
2023/11/18 02:05:12;;;;;;;22.07;12.20;;;;;;;;;;692046;28;1348;-68
2023/11/18 02:05:32;;;;;;;24.15;12.55;;;;;;;;;;691317;28;1826;-68